sensor_id;sensor_type;location;lat;lon;timestamp;P1;durP1;ratioP1;P2;durP2;ratioP2
9128;SDS011;4599;50.906;6.786;2023-05-07T00:02:22;7.07;;;4.63;;
9128;SDS011;4599;50.906;6.786;2023-05-07T00:06:44;9.40;;;5.20;;
9128;SDS011;4599;50.906;6.786;2023-05-07T00:11:10;5.97;;;4.90;;
9128;SDS011;4599;50.906;6.786;2023-05-07T00:15:32;8.37;;;5.30;;
9128;SDS011;4599;50.906;6.786;2023-05-07T00:19:54;10.13;;;5.67;;
9128;SDS011;4599;50.906;6.786;2023-05-07T00:24:15;6.60;;;5.17;;
9128;SDS011;4599;50.906;6.786;2023-05-07T00:28:39;9.97;;;6.07;;
9128;SDS011;4599;50.906;6.786;2023-05-07T00:33:00;7.33;;;5.60;;
9128;SDS011;4599;50.906;6.786;2023-05-07T00:37:23;6.13;;;5.53;;
9128;SDS011;4599;50.906;6.786;2023-05-07T00:41:45;8.13;;;6.20;;
9128;SDS011;4599;50.906;6.786;2023-05-07T00:46:08;7.90;;;6.30;;
9128;SDS011;4599;50.906;6.786;2023-05-07T00:50:31;11.63;;;8.83;;
9128;SDS011;4599;50.906;6.786;2023-05-07T00:54:54;11.50;;;8.83;;
9128;SDS011;4599;50.906;6.786;2023-05-07T00:59:15;13.57;;;9.87;;
9128;SDS011;4599;50.906;6.786;2023-05-07T01:03:39;14.03;;;10.27;;
9128;SDS011;4599;50.906;6.786;2023-05-07T01:08:03;13.87;;;9.73;;
9128;SDS011;4599;50.906;6.786;2023-05-07T01:12:25;12.93;;;8.77;;
9128;SDS011;4599;50.906;6.786;2023-05-07T01:16:48;13.27;;;8.27;;
9128;SDS011;4599;50.906;6.786;2023-05-07T01:21:11;9.07;;;7.90;;
9128;SDS011;4599;50.906;6.786;2023-05-07T01:25:38;8.73;;;7.40;;
9128;SDS011;4599;50.906;6.786;2023-05-07T01:30:00;11.70;;;8.47;;
9128;SDS011;4599;50.906;6.786;2023-05-07T01:34:22;11.67;;;8.73;;
9128;SDS011;4599;50.906;6.786;2023-05-07T01:38:46;13.77;;;8.57;;
9128;SDS011;4599;50.906;6.786;2023-05-07T01:43:10;10.87;;;8.40;;
9128;SDS011;4599;50.906;6.786;2023-05-07T01:47:32;13.00;;;8.33;;
9128;SDS011;4599;50.906;6.786;2023-05-07T01:51:55;12.03;;;8.73;;
9128;SDS011;4599;50.906;6.786;2023-05-07T01:56:16;12.37;;;9.23;;
9128;SDS011;4599;50.906;6.786;2023-05-07T02:00:40;13.00;;;9.50;;
9128;SDS011;4599;50.906;6.786;2023-05-07T02:05:02;15.13;;;9.50;;
9128;SDS011;4599;50.906;6.786;2023-05-07T02:09:24;12.77;;;9.07;;
9128;SDS011;4599;50.906;6.786;2023-05-07T02:13:46;14.80;;;9.10;;
9128;SDS011;4599;50.906;6.786;2023-05-07T02:18:09;13.90;;;8.20;;
9128;SDS011;4599;50.906;6.786;2023-05-07T02:22:31;10.97;;;8.10;;
9128;SDS011;4599;50.906;6.786;2023-05-07T02:26:53;14.10;;;8.60;;
9128;SDS011;4599;50.906;6.786;2023-05-07T02:31:15;11.23;;;8.47;;
9128;SDS011;4599;50.906;6.786;2023-05-07T02:35:38;9.33;;;7.50;;
9128;SDS011;4599;50.906;6.786;2023-05-07T02:40:00;9.77;;;7.80;;
9128;SDS011;4599;50.906;6.786;2023-05-07T02:44:21;10.33;;;7.33;;
9128;SDS011;4599;50.906;6.786;2023-05-07T02:48:43;10.97;;;8.23;;
9128;SDS011;4599;50.906;6.786;2023-05-07T02:53:06;10.53;;;8.27;;
9128;SDS011;4599;50.906;6.786;2023-05-07T02:57:28;10.17;;;7.60;;
9128;SDS011;4599;50.906;6.786;2023-05-07T03:01:50;9.57;;;7.70;;
9128;SDS011;4599;50.906;6.786;2023-05-07T03:06:12;8.80;;;6.90;;
9128;SDS011;4599;50.906;6.786;2023-05-07T03:10:35;11.80;;;8.43;;
9128;SDS011;4599;50.906;6.786;2023-05-07T03:14:57;14.40;;;9.27;;
9128;SDS011;4599;50.906;6.786;2023-05-07T03:19:19;11.83;;;8.97;;
9128;SDS011;4599;50.906;6.786;2023-05-07T03:23:40;11.27;;;8.10;;
9128;SDS011;4599;50.906;6.786;2023-05-07T03:28:04;12.57;;;8.97;;
9128;SDS011;4599;50.906;6.786;2023-05-07T03:32:25;11.60;;;8.70;;
9128;SDS011;4599;50.906;6.786;2023-05-07T03:36:48;11.23;;;8.90;;
9128;SDS011;4599;50.906;6.786;2023-05-07T03:41:09;11.20;;;9.17;;
9128;SDS011;4599;50.906;6.786;2023-05-07T03:45:33;9.83;;;8.73;;
9128;SDS011;4599;50.906;6.786;2023-05-07T03:49:55;12.37;;;9.53;;
9128;SDS011;4599;50.906;6.786;2023-05-07T03:54:16;10.40;;;8.53;;
9128;SDS011;4599;50.906;6.786;2023-05-07T03:58:38;10.03;;;8.43;;
9128;SDS011;4599;50.906;6.786;2023-05-07T04:03:01;12.43;;;8.97;;
9128;SDS011;4599;50.906;6.786;2023-05-07T04:07:23;11.30;;;7.73;;
9128;SDS011;4599;50.906;6.786;2023-05-07T04:11:45;9.97;;;7.93;;
9128;SDS011;4599;50.906;6.786;2023-05-07T04:16:07;11.87;;;8.37;;
9128;SDS011;4599;50.906;6.786;2023-05-07T04:20:30;10.80;;;7.33;;
9128;SDS011;4599;50.906;6.786;2023-05-07T04:24:55;12.37;;;7.77;;
9128;SDS011;4599;50.906;6.786;2023-05-07T04:29:17;7.87;;;6.60;;
9128;SDS011;4599;50.906;6.786;2023-05-07T04:33:39;8.17;;;7.13;;
9128;SDS011;4599;50.906;6.786;2023-05-07T04:38:02;9.10;;;6.67;;
9128;SDS011;4599;50.906;6.786;2023-05-07T04:42:24;9.13;;;6.43;;
9128;SDS011;4599;50.906;6.786;2023-05-07T04:46:46;8.13;;;5.80;;
9128;SDS011;4599;50.906;6.786;2023-05-07T04:51:08;6.93;;;5.70;;
9128;SDS011;4599;50.906;6.786;2023-05-07T04:55:31;6.50;;;5.80;;
9128;SDS011;4599;50.906;6.786;2023-05-07T04:59:53;9.07;;;5.97;;
9128;SDS011;4599;50.906;6.786;2023-05-07T05:04:15;9.30;;;6.13;;
9128;SDS011;4599;50.906;6.786;2023-05-07T05:08:37;9.07;;;5.20;;
9128;SDS011;4599;50.906;6.786;2023-05-07T05:13:00;5.27;;;4.77;;
9128;SDS011;4599;50.906;6.786;2023-05-07T05:17:22;6.10;;;4.53;;
9128;SDS011;4599;50.906;6.786;2023-05-07T05:21:44;5.23;;;4.30;;
9128;SDS011;4599;50.906;6.786;2023-05-07T05:26:06;5.50;;;4.17;;
9128;SDS011;4599;50.906;6.786;2023-05-07T05:30:29;6.03;;;4.73;;
9128;SDS011;4599;50.906;6.786;2023-05-07T05:34:51;7.23;;;4.63;;
9128;SDS011;4599;50.906;6.786;2023-05-07T05:39:13;4.30;;;3.90;;
9128;SDS011;4599;50.906;6.786;2023-05-07T05:43:35;5.67;;;4.40;;
9128;SDS011;4599;50.906;6.786;2023-05-07T05:47:58;4.57;;;3.90;;
9128;SDS011;4599;50.906;6.786;2023-05-07T05:52:20;4.67;;;3.60;;
9128;SDS011;4599;50.906;6.786;2023-05-07T05:56:41;7.23;;;3.87;;
9128;SDS011;4599;50.906;6.786;2023-05-07T06:01:04;4.43;;;3.30;;
9128;SDS011;4599;50.906;6.786;2023-05-07T06:05:27;5.50;;;3.60;;
9128;SDS011;4599;50.906;6.786;2023-05-07T06:09:49;4.33;;;3.43;;
9128;SDS011;4599;50.906;6.786;2023-05-07T06:14:11;5.53;;;3.73;;
9128;SDS011;4599;50.906;6.786;2023-05-07T06:18:32;3.80;;;3.37;;
9128;SDS011;4599;50.906;6.786;2023-05-07T06:22:55;5.40;;;3.33;;
9128;SDS011;4599;50.906;6.786;2023-05-07T06:27:18;3.70;;;3.40;;
9128;SDS011;4599;50.906;6.786;2023-05-07T06:31:39;5.57;;;2.80;;
9128;SDS011;4599;50.906;6.786;2023-05-07T06:36:01;3.53;;;2.70;;
9128;SDS011;4599;50.906;6.786;2023-05-07T06:40:25;3.10;;;2.50;;
9128;SDS011;4599;50.906;6.786;2023-05-07T06:44:48;3.13;;;2.30;;
9128;SDS011;4599;50.906;6.786;2023-05-07T06:49:10;3.07;;;2.57;;
9128;SDS011;4599;50.906;6.786;2023-05-07T06:53:32;4.57;;;2.77;;
9128;SDS011;4599;50.906;6.786;2023-05-07T06:57:55;4.67;;;2.90;;
9128;SDS011;4599;50.906;6.786;2023-05-07T07:02:17;4.73;;;2.87;;
9128;SDS011;4599;50.906;6.786;2023-05-07T07:06:39;4.87;;;2.70;;
9128;SDS011;4599;50.906;6.786;2023-05-07T07:11:02;3.90;;;2.20;;
9128;SDS011;4599;50.906;6.786;2023-05-07T07:15:25;5.40;;;2.60;;
9128;SDS011;4599;50.906;6.786;2023-05-07T07:19:47;2.73;;;2.23;;
9128;SDS011;4599;50.906;6.786;2023-05-07T07:24:09;4.77;;;2.40;;
9128;SDS011;4599;50.906;6.786;2023-05-07T07:28:31;7.73;;;2.20;;
9128;SDS011;4599;50.906;6.786;2023-05-07T07:32:54;3.70;;;2.23;;
9128;SDS011;4599;50.906;6.786;2023-05-07T07:37:16;4.63;;;2.17;;
9128;SDS011;4599;50.906;6.786;2023-05-07T07:41:38;3.87;;;2.27;;
9128;SDS011;4599;50.906;6.786;2023-05-07T07:45:59;3.40;;;2.13;;
9128;SDS011;4599;50.906;6.786;2023-05-07T07:50:23;3.03;;;2.10;;
9128;SDS011;4599;50.906;6.786;2023-05-07T07:55:01;2.17;;;1.90;;
9128;SDS011;4599;50.906;6.786;2023-05-07T07:59:23;3.37;;;2.40;;
9128;SDS011;4599;50.906;6.786;2023-05-07T08:03:44;4.63;;;2.20;;
9128;SDS011;4599;50.906;6.786;2023-05-07T08:08:08;2.73;;;2.20;;
9128;SDS011;4599;50.906;6.786;2023-05-07T08:12:30;2.67;;;2.20;;
9128;SDS011;4599;50.906;6.786;2023-05-07T08:16:52;4.97;;;2.50;;
9128;SDS011;4599;50.906;6.786;2023-05-07T08:21:14;3.83;;;2.20;;
9128;SDS011;4599;50.906;6.786;2023-05-07T08:25:37;3.97;;;2.20;;
9128;SDS011;4599;50.906;6.786;2023-05-07T08:29:59;3.87;;;2.27;;
9128;SDS011;4599;50.906;6.786;2023-05-07T08:34:21;5.43;;;2.20;;
9128;SDS011;4599;50.906;6.786;2023-05-07T08:38:43;2.30;;;2.10;;
9128;SDS011;4599;50.906;6.786;2023-05-07T08:43:07;3.33;;;2.00;;
9128;SDS011;4599;50.906;6.786;2023-05-07T08:47:29;2.27;;;2.07;;
9128;SDS011;4599;50.906;6.786;2023-05-07T08:51:56;3.30;;;1.90;;
9128;SDS011;4599;50.906;6.786;2023-05-07T08:56:17;2.83;;;1.80;;
9128;SDS011;4599;50.906;6.786;2023-05-07T09:00:42;3.43;;;2.30;;
9128;SDS011;4599;50.906;6.786;2023-05-07T09:05:05;5.50;;;2.40;;
9128;SDS011;4599;50.906;6.786;2023-05-07T09:09:28;4.03;;;2.00;;
9128;SDS011;4599;50.906;6.786;2023-05-07T09:13:52;3.93;;;1.80;;
9128;SDS011;4599;50.906;6.786;2023-05-07T09:18:16;3.77;;;1.90;;
9128;SDS011;4599;50.906;6.786;2023-05-07T09:22:38;3.90;;;1.77;;
9128;SDS011;4599;50.906;6.786;2023-05-07T09:27:00;3.67;;;2.10;;
9128;SDS011;4599;50.906;6.786;2023-05-07T09:31:23;3.20;;;2.13;;
9128;SDS011;4599;50.906;6.786;2023-05-07T09:35:46;3.80;;;2.30;;
9128;SDS011;4599;50.906;6.786;2023-05-07T09:40:20;2.20;;;2.00;;
9128;SDS011;4599;50.906;6.786;2023-05-07T09:44:42;6.00;;;2.00;;
9128;SDS011;4599;50.906;6.786;2023-05-07T09:49:06;2.25;;;1.90;;
9128;SDS011;4599;50.906;6.786;2023-05-07T09:53:34;3.10;;;2.05;;
9128;SDS011;4599;50.906;6.786;2023-05-07T09:57:57;2.53;;;1.90;;
9128;SDS011;4599;50.906;6.786;2023-05-07T10:02:20;2.88;;;2.10;;
9128;SDS011;4599;50.906;6.786;2023-05-07T10:06:42;4.40;;;1.90;;
9128;SDS011;4599;50.906;6.786;2023-05-07T10:11:07;2.97;;;2.08;;
9128;SDS011;4599;50.906;6.786;2023-05-07T10:15:30;4.03;;;1.95;;
9128;SDS011;4599;50.906;6.786;2023-05-07T10:19:53;4.25;;;2.08;;
9128;SDS011;4599;50.906;6.786;2023-05-07T10:24:16;2.38;;;2.17;;
9128;SDS011;4599;50.906;6.786;2023-05-07T10:28:45;4.85;;;2.22;;
9128;SDS011;4599;50.906;6.786;2023-05-07T10:33:10;5.68;;;2.50;;
9128;SDS011;4599;50.906;6.786;2023-05-07T10:37:35;5.03;;;2.13;;
9128;SDS011;4599;50.906;6.786;2023-05-07T10:41:57;3.90;;;2.28;;
9128;SDS011;4599;50.906;6.786;2023-05-07T10:46:30;2.53;;;2.25;;
9128;SDS011;4599;50.906;6.786;2023-05-07T10:50:52;2.88;;;2.30;;
9128;SDS011;4599;50.906;6.786;2023-05-07T10:55:42;7.93;;;5.03;;
9128;SDS011;4599;50.906;6.786;2023-05-07T11:00:16;5.80;;;3.88;;
9128;SDS011;4599;50.906;6.786;2023-05-07T11:05:21;8.27;;;6.78;;
9128;SDS011;4599;50.906;6.786;2023-05-07T11:09:55;25.70;;;14.57;;
9128;SDS011;4599;50.906;6.786;2023-05-07T11:19:05;37.25;;;22.40;;
9128;SDS011;4599;50.906;6.786;2023-05-07T11:28:30;5.03;;;3.30;;
9128;SDS011;4599;50.906;6.786;2023-05-07T11:32:57;6.45;;;5.85;;
9128;SDS011;4599;50.906;6.786;2023-05-07T11:37:20;15.60;;;9.37;;
9128;SDS011;4599;50.906;6.786;2023-05-07T11:41:43;4.83;;;2.60;;
9128;SDS011;4599;50.906;6.786;2023-05-07T11:46:07;3.37;;;2.50;;
9128;SDS011;4599;50.906;6.786;2023-05-07T11:50:30;2.53;;;1.77;;
9128;SDS011;4599;50.906;6.786;2023-05-07T11:54:56;3.50;;;2.40;;
9128;SDS011;4599;50.906;6.786;2023-05-07T11:59:19;2.87;;;1.50;;
9128;SDS011;4599;50.906;6.786;2023-05-07T12:03:42;2.23;;;1.70;;
9128;SDS011;4599;50.906;6.786;2023-05-07T12:08:05;3.07;;;2.40;;
9128;SDS011;4599;50.906;6.786;2023-05-07T12:12:27;26.23;;;19.47;;
9128;SDS011;4599;50.906;6.786;2023-05-07T12:16:48;14.07;;;12.30;;
9128;SDS011;4599;50.906;6.786;2023-05-07T12:21:12;22.40;;;16.57;;
9128;SDS011;4599;50.906;6.786;2023-05-07T12:25:34;3.50;;;1.90;;
9128;SDS011;4599;50.906;6.786;2023-05-07T12:29:57;3.17;;;1.70;;
9128;SDS011;4599;50.906;6.786;2023-05-07T12:34:19;2.90;;;1.67;;
9128;SDS011;4599;50.906;6.786;2023-05-07T12:38:43;6.87;;;5.67;;
9128;SDS011;4599;50.906;6.786;2023-05-07T12:43:04;2.67;;;1.70;;
9128;SDS011;4599;50.906;6.786;2023-05-07T12:47:26;6.57;;;2.00;;
9128;SDS011;4599;50.906;6.786;2023-05-07T12:51:48;5.23;;;2.13;;
9128;SDS011;4599;50.906;6.786;2023-05-07T12:56:12;3.97;;;1.90;;
9128;SDS011;4599;50.906;6.786;2023-05-07T13:00:37;1.97;;;1.70;;
9128;SDS011;4599;50.906;6.786;2023-05-07T13:05:00;3.60;;;1.87;;
9128;SDS011;4599;50.906;6.786;2023-05-07T13:09:21;3.33;;;1.53;;
9128;SDS011;4599;50.906;6.786;2023-05-07T13:13:45;2.10;;;1.90;;
9128;SDS011;4599;50.906;6.786;2023-05-07T13:18:06;3.63;;;2.00;;
9128;SDS011;4599;50.906;6.786;2023-05-07T13:22:28;4.47;;;2.13;;
9128;SDS011;4599;50.906;6.786;2023-05-07T13:26:50;3.87;;;2.73;;
9128;SDS011;4599;50.906;6.786;2023-05-07T13:31:13;4.43;;;2.97;;
9128;SDS011;4599;50.906;6.786;2023-05-07T13:35:35;5.73;;;3.20;;
9128;SDS011;4599;50.906;6.786;2023-05-07T13:39:57;4.67;;;3.20;;
9128;SDS011;4599;50.906;6.786;2023-05-07T13:44:19;5.53;;;3.20;;
9128;SDS011;4599;50.906;6.786;2023-05-07T13:48:42;5.03;;;3.27;;
9128;SDS011;4599;50.906;6.786;2023-05-07T13:53:04;7.10;;;3.53;;
9128;SDS011;4599;50.906;6.786;2023-05-07T13:57:26;7.70;;;3.23;;
9128;SDS011;4599;50.906;6.786;2023-05-07T14:01:48;5.73;;;3.07;;
9128;SDS011;4599;50.906;6.786;2023-05-07T14:06:11;5.20;;;3.70;;
9128;SDS011;4599;50.906;6.786;2023-05-07T14:10:33;4.37;;;3.63;;
9128;SDS011;4599;50.906;6.786;2023-05-07T14:14:55;5.73;;;3.80;;
9128;SDS011;4599;50.906;6.786;2023-05-07T14:19:17;4.40;;;3.70;;
9128;SDS011;4599;50.906;6.786;2023-05-07T14:23:40;5.23;;;3.20;;
9128;SDS011;4599;50.906;6.786;2023-05-07T14:28:02;4.33;;;3.10;;
9128;SDS011;4599;50.906;6.786;2023-05-07T14:32:24;6.07;;;2.90;;
9128;SDS011;4599;50.906;6.786;2023-05-07T14:36:46;4.77;;;2.93;;
9128;SDS011;4599;50.906;6.786;2023-05-07T14:41:09;6.90;;;3.30;;
9128;SDS011;4599;50.906;6.786;2023-05-07T14:45:32;7.47;;;2.53;;
9128;SDS011;4599;50.906;6.786;2023-05-07T14:49:54;4.30;;;2.50;;
9128;SDS011;4599;50.906;6.786;2023-05-07T14:54:16;3.40;;;2.40;;
9128;SDS011;4599;50.906;6.786;2023-05-07T14:58:39;5.43;;;2.27;;
9128;SDS011;4599;50.906;6.786;2023-05-07T15:03:04;5.90;;;1.70;;
9128;SDS011;4599;50.906;6.786;2023-05-07T15:07:27;4.97;;;1.50;;
9128;SDS011;4599;50.906;6.786;2023-05-07T15:11:49;2.07;;;1.30;;
9128;SDS011;4599;50.906;6.786;2023-05-07T15:16:12;2.07;;;1.47;;
9128;SDS011;4599;50.906;6.786;2023-05-07T15:20:35;3.00;;;1.40;;
9128;SDS011;4599;50.906;6.786;2023-05-07T15:24:58;2.17;;;1.40;;
9128;SDS011;4599;50.906;6.786;2023-05-07T15:29:20;3.67;;;1.50;;
9128;SDS011;4599;50.906;6.786;2023-05-07T15:33:44;2.73;;;1.60;;
9128;SDS011;4599;50.906;6.786;2023-05-07T15:38:05;3.17;;;1.80;;
9128;SDS011;4599;50.906;6.786;2023-05-07T15:42:27;3.97;;;2.07;;
9128;SDS011;4599;50.906;6.786;2023-05-07T15:46:49;4.33;;;2.13;;
9128;SDS011;4599;50.906;6.786;2023-05-07T15:51:12;3.57;;;2.10;;
9128;SDS011;4599;50.906;6.786;2023-05-07T15:55:35;4.40;;;2.20;;
9128;SDS011;4599;50.906;6.786;2023-05-07T15:59:57;6.37;;;2.60;;
9128;SDS011;4599;50.906;6.786;2023-05-07T16:04:19;6.00;;;2.70;;
9128;SDS011;4599;50.906;6.786;2023-05-07T16:08:42;3.67;;;2.13;;
9128;SDS011;4599;50.906;6.786;2023-05-07T16:13:04;4.40;;;2.40;;
9128;SDS011;4599;50.906;6.786;2023-05-07T16:17:27;4.43;;;2.87;;
9128;SDS011;4599;50.906;6.786;2023-05-07T16:21:49;5.70;;;2.27;;
9128;SDS011;4599;50.906;6.786;2023-05-07T16:26:12;2.97;;;2.20;;
9128;SDS011;4599;50.906;6.786;2023-05-07T16:30:34;4.47;;;2.10;;
9128;SDS011;4599;50.906;6.786;2023-05-07T16:34:56;2.87;;;2.27;;
9128;SDS011;4599;50.906;6.786;2023-05-07T16:39:18;4.97;;;2.07;;
9128;SDS011;4599;50.906;6.786;2023-05-07T16:43:41;4.20;;;2.30;;
9128;SDS011;4599;50.906;6.786;2023-05-07T16:48:03;2.47;;;2.27;;
9128;SDS011;4599;50.906;6.786;2023-05-07T16:52:25;2.77;;;2.20;;
9128;SDS011;4599;50.906;6.786;2023-05-07T16:56:47;3.00;;;2.70;;
9128;SDS011;4599;50.906;6.786;2023-05-07T17:01:10;3.00;;;2.70;;
9128;SDS011;4599;50.906;6.786;2023-05-07T17:05:32;3.40;;;2.80;;
9128;SDS011;4599;50.906;6.786;2023-05-07T17:09:54;3.83;;;2.80;;
9128;SDS011;4599;50.906;6.786;2023-05-07T17:14:16;4.43;;;2.80;;
9128;SDS011;4599;50.906;6.786;2023-05-07T17:18:39;6.27;;;3.00;;
9128;SDS011;4599;50.906;6.786;2023-05-07T17:23:01;3.47;;;2.80;;
9128;SDS011;4599;50.906;6.786;2023-05-07T17:27:23;5.23;;;2.20;;
9128;SDS011;4599;50.906;6.786;2023-05-07T17:31:45;2.10;;;1.83;;
9128;SDS011;4599;50.906;6.786;2023-05-07T17:36:08;4.47;;;2.60;;
9128;SDS011;4599;50.906;6.786;2023-05-07T17:40:30;2.87;;;2.30;;
9128;SDS011;4599;50.906;6.786;2023-05-07T17:44:52;3.93;;;2.30;;
9128;SDS011;4599;50.906;6.786;2023-05-07T17:49:14;2.37;;;2.17;;
9128;SDS011;4599;50.906;6.786;2023-05-07T17:53:37;5.63;;;2.97;;
9128;SDS011;4599;50.906;6.786;2023-05-07T17:57:59;5.67;;;2.90;;
9128;SDS011;4599;50.906;6.786;2023-05-07T18:02:21;4.23;;;3.80;;
9128;SDS011;4599;50.906;6.786;2023-05-07T18:06:43;7.60;;;3.87;;
9128;SDS011;4599;50.906;6.786;2023-05-07T18:11:06;6.97;;;4.07;;
9128;SDS011;4599;50.906;6.786;2023-05-07T18:15:28;8.27;;;4.27;;
9128;SDS011;4599;50.906;6.786;2023-05-07T18:19:50;5.27;;;4.03;;
9128;SDS011;4599;50.906;6.786;2023-05-07T18:24:15;6.67;;;4.20;;
9128;SDS011;4599;50.906;6.786;2023-05-07T18:28:38;6.47;;;4.87;;
9128;SDS011;4599;50.906;6.786;2023-05-07T18:33:01;7.13;;;4.50;;
9128;SDS011;4599;50.906;6.786;2023-05-07T18:37:23;6.07;;;4.40;;
9128;SDS011;4599;50.906;6.786;2023-05-07T18:41:47;9.00;;;4.03;;
9128;SDS011;4599;50.906;6.786;2023-05-07T18:46:10;7.50;;;3.87;;
9128;SDS011;4599;50.906;6.786;2023-05-07T18:50:32;10.17;;;3.83;;
9128;SDS011;4599;50.906;6.786;2023-05-07T18:54:54;6.33;;;3.77;;
9128;SDS011;4599;50.906;6.786;2023-05-07T18:59:15;8.23;;;4.23;;
9128;SDS011;4599;50.906;6.786;2023-05-07T19:03:39;9.13;;;4.07;;
9128;SDS011;4599;50.906;6.786;2023-05-07T19:08:01;4.50;;;3.90;;
9128;SDS011;4599;50.906;6.786;2023-05-07T19:12:22;5.30;;;4.53;;
9128;SDS011;4599;50.906;6.786;2023-05-07T19:16:45;5.23;;;4.73;;
9128;SDS011;4599;50.906;6.786;2023-05-07T19:21:08;5.67;;;4.60;;
9128;SDS011;4599;50.906;6.786;2023-05-07T19:25:30;5.43;;;4.73;;
9128;SDS011;4599;50.906;6.786;2023-05-07T19:29:52;6.00;;;4.60;;
9128;SDS011;4599;50.906;6.786;2023-05-07T19:34:14;7.60;;;4.67;;
9128;SDS011;4599;50.906;6.786;2023-05-07T19:38:37;8.83;;;4.83;;
9128;SDS011;4599;50.906;6.786;2023-05-07T19:42:59;7.00;;;4.90;;
9128;SDS011;4599;50.906;6.786;2023-05-07T19:47:21;9.80;;;6.93;;
9128;SDS011;4599;50.906;6.786;2023-05-07T19:51:43;6.47;;;4.97;;
9128;SDS011;4599;50.906;6.786;2023-05-07T19:56:06;12.70;;;4.70;;
9128;SDS011;4599;50.906;6.786;2023-05-07T20:00:29;6.27;;;4.60;;
9128;SDS011;4599;50.906;6.786;2023-05-07T20:04:51;7.07;;;4.73;;
9128;SDS011;4599;50.906;6.786;2023-05-07T20:09:12;8.27;;;5.10;;
9128;SDS011;4599;50.906;6.786;2023-05-07T20:13:36;9.80;;;5.47;;
9128;SDS011;4599;50.906;6.786;2023-05-07T20:17:58;8.47;;;5.73;;
9128;SDS011;4599;50.906;6.786;2023-05-07T20:22:20;7.13;;;5.87;;
9128;SDS011;4599;50.906;6.786;2023-05-07T20:26:42;6.40;;;5.60;;
9128;SDS011;4599;50.906;6.786;2023-05-07T20:31:06;8.50;;;5.80;;
9128;SDS011;4599;50.906;6.786;2023-05-07T20:35:27;11.10;;;6.17;;
9128;SDS011;4599;50.906;6.786;2023-05-07T20:39:49;9.30;;;6.60;;
9128;SDS011;4599;50.906;6.786;2023-05-07T20:44:11;8.70;;;6.93;;
9128;SDS011;4599;50.906;6.786;2023-05-07T20:48:34;10.40;;;6.93;;
9128;SDS011;4599;50.906;6.786;2023-05-07T20:52:56;7.63;;;6.80;;
9128;SDS011;4599;50.906;6.786;2023-05-07T20:57:18;10.33;;;7.30;;
9128;SDS011;4599;50.906;6.786;2023-05-07T21:01:40;9.33;;;7.33;;
9128;SDS011;4599;50.906;6.786;2023-05-07T21:06:03;7.80;;;7.03;;
9128;SDS011;4599;50.906;6.786;2023-05-07T21:10:25;10.43;;;7.27;;
9128;SDS011;4599;50.906;6.786;2023-05-07T21:14:47;11.03;;;8.17;;
9128;SDS011;4599;50.906;6.786;2023-05-07T21:19:09;11.23;;;7.27;;
9128;SDS011;4599;50.906;6.786;2023-05-07T21:23:33;10.37;;;8.07;;
9128;SDS011;4599;50.906;6.786;2023-05-07T21:27:55;8.60;;;7.73;;
9128;SDS011;4599;50.906;6.786;2023-05-07T21:32:16;11.87;;;9.53;;
9128;SDS011;4599;50.906;6.786;2023-05-07T21:36:38;12.13;;;9.87;;
9128;SDS011;4599;50.906;6.786;2023-05-07T21:41:01;11.17;;;10.00;;
9128;SDS011;4599;50.906;6.786;2023-05-07T21:45:23;11.07;;;10.00;;
9128;SDS011;4599;50.906;6.786;2023-05-07T21:49:45;11.70;;;10.50;;
9128;SDS011;4599;50.906;6.786;2023-05-07T21:54:07;12.23;;;9.87;;
9128;SDS011;4599;50.906;6.786;2023-05-07T21:58:30;13.97;;;10.50;;
9128;SDS011;4599;50.906;6.786;2023-05-07T22:02:52;11.83;;;10.70;;
9128;SDS011;4599;50.906;6.786;2023-05-07T22:07:14;11.13;;;9.93;;
9128;SDS011;4599;50.906;6.786;2023-05-07T22:11:36;13.07;;;10.50;;
9128;SDS011;4599;50.906;6.786;2023-05-07T22:15:59;11.93;;;10.53;;
9128;SDS011;4599;50.906;6.786;2023-05-07T22:20:21;11.60;;;10.50;;
9128;SDS011;4599;50.906;6.786;2023-05-07T22:24:43;12.40;;;11.10;;
9128;SDS011;4599;50.906;6.786;2023-05-07T22:29:05;12.90;;;10.97;;
9128;SDS011;4599;50.906;6.786;2023-05-07T22:33:28;12.73;;;11.03;;
9128;SDS011;4599;50.906;6.786;2023-05-07T22:37:50;13.53;;;11.13;;
9128;SDS011;4599;50.906;6.786;2023-05-07T22:42:12;12.80;;;11.40;;
9128;SDS011;4599;50.906;6.786;2023-05-07T22:46:34;11.97;;;10.83;;
9128;SDS011;4599;50.906;6.786;2023-05-07T22:50:57;12.13;;;10.87;;
9128;SDS011;4599;50.906;6.786;2023-05-07T22:55:19;16.00;;;11.00;;
9128;SDS011;4599;50.906;6.786;2023-05-07T22:59:41;12.03;;;10.83;;
9128;SDS011;4599;50.906;6.786;2023-05-07T23:04:03;14.67;;;11.27;;
9128;SDS011;4599;50.906;6.786;2023-05-07T23:08:26;13.23;;;11.13;;
9128;SDS011;4599;50.906;6.786;2023-05-07T23:12:48;13.87;;;12.47;;
9128;SDS011;4599;50.906;6.786;2023-05-07T23:17:10;13.37;;;11.60;;
9128;SDS011;4599;50.906;6.786;2023-05-07T23:21:32;12.50;;;11.20;;
9128;SDS011;4599;50.906;6.786;2023-05-07T23:25:55;14.93;;;12.27;;
9128;SDS011;4599;50.906;6.786;2023-05-07T23:30:17;13.73;;;11.83;;
9128;SDS011;4599;50.906;6.786;2023-05-07T23:34:39;12.93;;;11.73;;
9128;SDS011;4599;50.906;6.786;2023-05-07T23:39:01;12.60;;;11.40;;
9128;SDS011;4599;50.906;6.786;2023-05-07T23:43:25;13.47;;;11.40;;
9128;SDS011;4599;50.906;6.786;2023-05-07T23:47:47;13.13;;;11.73;;
9128;SDS011;4599;50.906;6.786;2023-05-07T23:52:09;15.33;;;11.70;;
9128;SDS011;4599;50.906;6.786;2023-05-07T23:56:31;12.70;;;11.50;;
